sensor_id;sensor_type;location;lat;lon;timestamp;pressure;altitude;pressure_sealevel;temperature
68588;BMP180;55560;52.174;20.996;2022-09-29T00:00:50;98963.80;;;10.10
68588;BMP180;55560;52.174;20.996;2022-09-29T00:03:31;98959.80;;;9.90
68588;BMP180;55560;52.174;20.996;2022-09-29T00:06:03;98966.20;;;9.90
68588;BMP180;55560;52.174;20.996;2022-09-29T00:08:31;98965.60;;;9.90
68588;BMP180;55560;52.174;20.996;2022-09-29T00:11:09;98966.80;;;9.80
68588;BMP180;55560;52.174;20.996;2022-09-29T00:13:41;98956.40;;;9.80
68588;BMP180;55560;52.174;20.996;2022-09-29T00:16:11;98950.00;;;9.70
68588;BMP180;55560;52.174;20.996;2022-09-29T00:18:40;98948.20;;;9.72
68588;BMP180;55560;52.174;20.996;2022-09-29T00:21:15;98949.40;;;9.78
68588;BMP180;55560;52.174;20.996;2022-09-29T00:23:51;98954.40;;;9.80
68588;BMP180;55560;52.174;20.996;2022-09-29T00:26:24;98959.60;;;9.80
68588;BMP180;55560;52.174;20.996;2022-09-29T00:28:57;98948.80;;;9.76
68588;BMP180;55560;52.174;20.996;2022-09-29T00:31:32;98945.00;;;9.70
68588;BMP180;55560;52.174;20.996;2022-09-29T00:34:02;98948.60;;;9.72
68588;BMP180;55560;52.174;20.996;2022-09-29T00:36:31;98950.80;;;9.80
68588;BMP180;55560;52.174;20.996;2022-09-29T00:39:03;98950.60;;;9.70
68588;BMP180;55560;52.174;20.996;2022-09-29T00:41:35;98953.40;;;9.76
68588;BMP180;55560;52.174;20.996;2022-09-29T00:46:51;98951.60;;;9.80
68588;BMP180;55560;52.174;20.996;2022-09-29T00:49:58;98957.00;;;9.80
68588;BMP180;55560;52.174;20.996;2022-09-29T00:52:36;98959.20;;;9.70
68588;BMP180;55560;52.174;20.996;2022-09-29T00:55:42;98958.00;;;9.76
68588;BMP180;55560;52.174;20.996;2022-09-29T00:58:29;98958.20;;;9.76
68588;BMP180;55560;52.174;20.996;2022-09-29T01:01:02;98960.60;;;9.72
68588;BMP180;55560;52.174;20.996;2022-09-29T01:03:39;98964.60;;;9.70
68588;BMP180;55560;52.174;20.996;2022-09-29T01:06:14;98965.80;;;9.70
68588;BMP180;55560;52.174;20.996;2022-09-29T01:09:10;98964.60;;;9.70
68588;BMP180;55560;52.174;20.996;2022-09-29T01:11:40;98963.80;;;9.70
68588;BMP180;55560;52.174;20.996;2022-09-29T01:14:16;98968.60;;;9.70
68588;BMP180;55560;52.174;20.996;2022-09-29T01:16:46;98969.80;;;9.70
68588;BMP180;55560;52.174;20.996;2022-09-29T01:19:58;98972.00;;;9.70
68588;BMP180;55560;52.174;20.996;2022-09-29T01:31:55;98986.80;;;9.58
68588;BMP180;55560;52.174;20.996;2022-09-29T01:38:15;98991.00;;;9.50
68588;BMP180;55560;52.174;20.996;2022-09-29T01:41:30;98986.60;;;9.40
68588;BMP180;55560;52.174;20.996;2022-09-29T01:49:52;98998.20;;;9.30
68588;BMP180;55560;52.174;20.996;2022-09-29T01:52:27;98993.80;;;9.30
68588;BMP180;55560;52.174;20.996;2022-09-29T01:55:17;98988.80;;;9.20
68588;BMP180;55560;52.174;20.996;2022-09-29T01:58:01;98992.20;;;9.20
68588;BMP180;55560;52.174;20.996;2022-09-29T02:00:39;98996.80;;;9.16
68588;BMP180;55560;52.174;20.996;2022-09-29T02:03:28;98999.60;;;9.10
68588;BMP180;55560;52.174;20.996;2022-09-29T02:06:02;99003.40;;;9.10
68588;BMP180;55560;52.174;20.996;2022-09-29T02:08:38;99007.00;;;9.02
68588;BMP180;55560;52.174;20.996;2022-09-29T02:11:10;99004.80;;;9.00
68588;BMP180;55560;52.174;20.996;2022-09-29T02:14:17;99002.20;;;9.00
68588;BMP180;55560;52.174;20.996;2022-09-29T02:16:53;99005.20;;;8.90
68588;BMP180;55560;52.174;20.996;2022-09-29T02:19:26;99011.60;;;8.90
68588;BMP180;55560;52.174;20.996;2022-09-29T02:21:56;99005.00;;;8.90
68588;BMP180;55560;52.174;20.996;2022-09-29T02:24:26;99010.40;;;8.90
68588;BMP180;55560;52.174;20.996;2022-09-29T02:26:54;99018.80;;;8.90
68588;BMP180;55560;52.174;20.996;2022-09-29T02:29:23;99020.80;;;8.90
68588;BMP180;55560;52.174;20.996;2022-09-29T02:31:54;99023.80;;;8.90
68588;BMP180;55560;52.174;20.996;2022-09-29T02:34:24;99024.60;;;8.90
68588;BMP180;55560;52.174;20.996;2022-09-29T02:37:21;99020.80;;;8.90
68588;BMP180;55560;52.174;20.996;2022-09-29T02:49:20;99024.40;;;8.80
68588;BMP180;55560;52.174;20.996;2022-09-29T02:57:50;99039.40;;;8.80
68588;BMP180;55560;52.174;20.996;2022-09-29T03:00:21;99051.60;;;8.80
68588;BMP180;55560;52.174;20.996;2022-09-29T03:02:53;99030.80;;;8.80
68588;BMP180;55560;52.174;20.996;2022-09-29T03:05:22;99031.40;;;8.80
68588;BMP180;55560;52.174;20.996;2022-09-29T03:07:51;99029.60;;;8.80
68588;BMP180;55560;52.174;20.996;2022-09-29T03:10:20;99039.00;;;8.80
68588;BMP180;55560;52.174;20.996;2022-09-29T03:12:52;99035.40;;;8.80
68588;BMP180;55560;52.174;20.996;2022-09-29T03:15:20;99040.60;;;8.80
68588;BMP180;55560;52.174;20.996;2022-09-29T03:17:49;99053.00;;;8.82
68588;BMP180;55560;52.174;20.996;2022-09-29T03:20:17;99054.20;;;8.80
68588;BMP180;55560;52.174;20.996;2022-09-29T03:22:47;99059.60;;;8.80
68588;BMP180;55560;52.174;20.996;2022-09-29T03:25:15;99072.40;;;8.76
68588;BMP180;55560;52.174;20.996;2022-09-29T03:27:46;99075.20;;;8.70
68588;BMP180;55560;52.174;20.996;2022-09-29T03:30:17;99076.00;;;8.74
68588;BMP180;55560;52.174;20.996;2022-09-29T03:32:46;99080.40;;;8.70
68588;BMP180;55560;52.174;20.996;2022-09-29T03:35:15;99082.20;;;8.72
68588;BMP180;55560;52.174;20.996;2022-09-29T03:37:46;99075.00;;;8.76
68588;BMP180;55560;52.174;20.996;2022-09-29T03:40:16;99063.60;;;8.70
68588;BMP180;55560;52.174;20.996;2022-09-29T03:42:45;99065.40;;;8.72
68588;BMP180;55560;52.174;20.996;2022-09-29T03:45:16;99069.20;;;8.78
68588;BMP180;55560;52.174;20.996;2022-09-29T03:47:45;99075.80;;;8.78
68588;BMP180;55560;52.174;20.996;2022-09-29T03:50:14;99088.40;;;8.80
68588;BMP180;55560;52.174;20.996;2022-09-29T03:52:43;99087.40;;;8.80
68588;BMP180;55560;52.174;20.996;2022-09-29T03:55:12;99087.80;;;8.80
68588;BMP180;55560;52.174;20.996;2022-09-29T03:57:41;99092.40;;;8.80
68588;BMP180;55560;52.174;20.996;2022-09-29T04:00:10;99097.80;;;8.80
68588;BMP180;55560;52.174;20.996;2022-09-29T04:02:39;99079.60;;;8.76
68588;BMP180;55560;52.174;20.996;2022-09-29T04:05:07;99087.60;;;8.72
68588;BMP180;55560;52.174;20.996;2022-09-29T04:07:37;99088.80;;;8.70
68588;BMP180;55560;52.174;20.996;2022-09-29T04:10:05;99082.80;;;8.70
68588;BMP180;55560;52.174;20.996;2022-09-29T04:12:34;99082.00;;;8.60
68588;BMP180;55560;52.174;20.996;2022-09-29T04:15:03;99084.60;;;8.60
68588;BMP180;55560;52.174;20.996;2022-09-29T04:17:31;99088.00;;;8.60
68588;BMP180;55560;52.174;20.996;2022-09-29T04:20:00;99087.80;;;8.60
68588;BMP180;55560;52.174;20.996;2022-09-29T04:22:37;99087.80;;;8.60
68588;BMP180;55560;52.174;20.996;2022-09-29T04:25:08;99088.20;;;8.60
68588;BMP180;55560;52.174;20.996;2022-09-29T04:27:37;99091.80;;;8.50
68588;BMP180;55560;52.174;20.996;2022-09-29T04:30:06;99095.00;;;8.50
68588;BMP180;55560;52.174;20.996;2022-09-29T04:32:35;99101.00;;;8.50
68588;BMP180;55560;52.174;20.996;2022-09-29T04:35:05;99103.00;;;8.48
68588;BMP180;55560;52.174;20.996;2022-09-29T04:37:34;99100.00;;;8.40
68588;BMP180;55560;52.174;20.996;2022-09-29T04:40:04;99098.00;;;8.40
68588;BMP180;55560;52.174;20.996;2022-09-29T04:42:32;99097.60;;;8.40
68588;BMP180;55560;52.174;20.996;2022-09-29T04:45:04;99100.80;;;8.40
68588;BMP180;55560;52.174;20.996;2022-09-29T04:47:35;99103.20;;;8.46
68588;BMP180;55560;52.174;20.996;2022-09-29T04:50:07;99109.20;;;8.48
68588;BMP180;55560;52.174;20.996;2022-09-29T04:52:42;99111.80;;;8.48
68588;BMP180;55560;52.174;20.996;2022-09-29T04:55:12;99110.80;;;8.50
68588;BMP180;55560;52.174;20.996;2022-09-29T04:57:42;99105.00;;;8.50
68588;BMP180;55560;52.174;20.996;2022-09-29T05:00:11;99109.20;;;8.50
68588;BMP180;55560;52.174;20.996;2022-09-29T05:02:40;99112.40;;;8.50
68588;BMP180;55560;52.174;20.996;2022-09-29T05:05:15;99110.80;;;8.50
68588;BMP180;55560;52.174;20.996;2022-09-29T05:07:44;99110.60;;;8.60
68588;BMP180;55560;52.174;20.996;2022-09-29T05:10:16;99109.80;;;8.56
68588;BMP180;55560;52.174;20.996;2022-09-29T05:12:49;99114.00;;;8.60
68588;BMP180;55560;52.174;20.996;2022-09-29T05:15:19;99117.80;;;8.60
68588;BMP180;55560;52.174;20.996;2022-09-29T05:17:52;99119.60;;;8.60
68588;BMP180;55560;52.174;20.996;2022-09-29T05:20:20;99124.40;;;8.60
68588;BMP180;55560;52.174;20.996;2022-09-29T05:22:48;99125.60;;;8.60
68588;BMP180;55560;52.174;20.996;2022-09-29T05:25:17;99128.20;;;8.60
68588;BMP180;55560;52.174;20.996;2022-09-29T05:27:46;99133.40;;;8.60
68588;BMP180;55560;52.174;20.996;2022-09-29T05:30:17;99135.00;;;8.60
68588;BMP180;55560;52.174;20.996;2022-09-29T05:32:46;99131.20;;;8.70
68588;BMP180;55560;52.174;20.996;2022-09-29T05:35:17;99143.20;;;8.70
68588;BMP180;55560;52.174;20.996;2022-09-29T05:37:45;99143.80;;;8.70
68588;BMP180;55560;52.174;20.996;2022-09-29T05:40:14;99147.80;;;8.80
68588;BMP180;55560;52.174;20.996;2022-09-29T05:42:42;99147.40;;;8.80
68588;BMP180;55560;52.174;20.996;2022-09-29T05:45:11;99147.20;;;8.80
68588;BMP180;55560;52.174;20.996;2022-09-29T05:47:44;99150.80;;;8.80
68588;BMP180;55560;52.174;20.996;2022-09-29T05:50:20;99156.80;;;8.80
68588;BMP180;55560;52.174;20.996;2022-09-29T05:52:48;99160.60;;;8.80
68588;BMP180;55560;52.174;20.996;2022-09-29T05:55:21;99157.80;;;8.80
68588;BMP180;55560;52.174;20.996;2022-09-29T05:57:51;99154.60;;;8.90
68588;BMP180;55560;52.174;20.996;2022-09-29T06:00:19;99159.00;;;8.86
68588;BMP180;55560;52.174;20.996;2022-09-29T06:02:52;99162.40;;;8.90
68588;BMP180;55560;52.174;20.996;2022-09-29T06:05:20;99157.80;;;8.90
68588;BMP180;55560;52.174;20.996;2022-09-29T06:07:48;99156.60;;;8.90
68588;BMP180;55560;52.174;20.996;2022-09-29T06:10:19;99161.60;;;9.00
68588;BMP180;55560;52.174;20.996;2022-09-29T06:12:48;99165.40;;;9.00
68588;BMP180;55560;52.174;20.996;2022-09-29T06:15:16;99168.00;;;9.00
68588;BMP180;55560;52.174;20.996;2022-09-29T06:17:44;99166.40;;;9.06
68588;BMP180;55560;52.174;20.996;2022-09-29T06:20:15;99173.80;;;9.10
68588;BMP180;55560;52.174;20.996;2022-09-29T06:22:46;99179.60;;;9.14
68588;BMP180;55560;52.174;20.996;2022-09-29T06:25:16;99181.80;;;9.20
68588;BMP180;55560;52.174;20.996;2022-09-29T06:27:44;99180.60;;;9.20
68588;BMP180;55560;52.174;20.996;2022-09-29T06:30:13;99184.40;;;9.20
68588;BMP180;55560;52.174;20.996;2022-09-29T06:32:42;99186.20;;;9.20
68588;BMP180;55560;52.174;20.996;2022-09-29T06:35:10;99185.00;;;9.20
68588;BMP180;55560;52.174;20.996;2022-09-29T06:37:57;99189.40;;;9.20
68588;BMP180;55560;52.174;20.996;2022-09-29T06:40:27;99195.80;;;9.20
68588;BMP180;55560;52.174;20.996;2022-09-29T06:42:57;99198.00;;;9.20
68588;BMP180;55560;52.174;20.996;2022-09-29T06:45:25;99198.00;;;9.20
68588;BMP180;55560;52.174;20.996;2022-09-29T06:47:58;99201.20;;;9.20
68588;BMP180;55560;52.174;20.996;2022-09-29T06:50:27;99197.00;;;9.30
68588;BMP180;55560;52.174;20.996;2022-09-29T06:52:56;99203.00;;;9.38
68588;BMP180;55560;52.174;20.996;2022-09-29T06:55:33;99203.80;;;9.40
68588;BMP180;55560;52.174;20.996;2022-09-29T06:58:05;99208.00;;;9.40
68588;BMP180;55560;52.174;20.996;2022-09-29T07:00:34;99211.80;;;9.40
68588;BMP180;55560;52.174;20.996;2022-09-29T07:03:03;99215.60;;;9.46
68588;BMP180;55560;52.174;20.996;2022-09-29T07:05:31;99218.80;;;9.50
68588;BMP180;55560;52.174;20.996;2022-09-29T07:08:00;99215.40;;;9.54
68588;BMP180;55560;52.174;20.996;2022-09-29T07:10:29;99224.20;;;9.60
68588;BMP180;55560;52.174;20.996;2022-09-29T07:12:58;99225.60;;;9.70
68588;BMP180;55560;52.174;20.996;2022-09-29T07:15:26;99236.00;;;9.70
68588;BMP180;55560;52.174;20.996;2022-09-29T07:18:00;99230.60;;;9.70
68588;BMP180;55560;52.174;20.996;2022-09-29T07:20:30;99239.20;;;9.70
68588;BMP180;55560;52.174;20.996;2022-09-29T07:22:59;99239.60;;;9.74
68588;BMP180;55560;52.174;20.996;2022-09-29T07:25:31;99241.60;;;9.72
68588;BMP180;55560;52.174;20.996;2022-09-29T07:28:18;99243.60;;;9.80
68588;BMP180;55560;52.174;20.996;2022-09-29T07:31:01;99249.40;;;9.80
68588;BMP180;55560;52.174;20.996;2022-09-29T07:33:44;99247.40;;;9.80
68588;BMP180;55560;52.174;20.996;2022-09-29T07:36:16;99241.00;;;9.80
68588;BMP180;55560;52.174;20.996;2022-09-29T07:38:50;99250.60;;;9.90
68588;BMP180;55560;52.174;20.996;2022-09-29T07:41:21;99253.80;;;10.00
68588;BMP180;55560;52.174;20.996;2022-09-29T07:43:50;99258.20;;;10.00
68588;BMP180;55560;52.174;20.996;2022-09-29T07:46:19;99251.80;;;10.00
68588;BMP180;55560;52.174;20.996;2022-09-29T07:48:47;99265.80;;;10.10
68588;BMP180;55560;52.174;20.996;2022-09-29T07:51:18;99271.20;;;10.10
68588;BMP180;55560;52.174;20.996;2022-09-29T07:53:48;99272.80;;;10.20
68588;BMP180;55560;52.174;20.996;2022-09-29T07:56:21;99272.00;;;10.30
68588;BMP180;55560;52.174;20.996;2022-09-29T07:58:51;99276.60;;;10.34
68588;BMP180;55560;52.174;20.996;2022-09-29T08:01:19;99284.80;;;10.32
68588;BMP180;55560;52.174;20.996;2022-09-29T08:03:52;99281.20;;;10.40
68588;BMP180;55560;52.174;20.996;2022-09-29T08:06:25;99282.00;;;10.50
68588;BMP180;55560;52.174;20.996;2022-09-29T08:08:54;99278.20;;;10.60
68588;BMP180;55560;52.174;20.996;2022-09-29T08:11:38;99278.20;;;10.70
68588;BMP180;55560;52.174;20.996;2022-09-29T08:14:10;99278.00;;;10.88
68588;BMP180;55560;52.174;20.996;2022-09-29T08:16:39;99279.60;;;11.00
68588;BMP180;55560;52.174;20.996;2022-09-29T08:19:08;99284.40;;;11.10
68588;BMP180;55560;52.174;20.996;2022-09-29T08:21:36;99282.00;;;11.20
68588;BMP180;55560;52.174;20.996;2022-09-29T08:24:06;99283.40;;;11.20
68588;BMP180;55560;52.174;20.996;2022-09-29T08:26:36;99292.60;;;11.30
68588;BMP180;55560;52.174;20.996;2022-09-29T08:29:14;99295.80;;;11.30
68588;BMP180;55560;52.174;20.996;2022-09-29T08:31:45;99296.60;;;11.30
68588;BMP180;55560;52.174;20.996;2022-09-29T08:34:16;99296.80;;;11.20
68588;BMP180;55560;52.174;20.996;2022-09-29T08:36:45;99295.20;;;11.20
68588;BMP180;55560;52.174;20.996;2022-09-29T08:39:14;99297.20;;;11.12
68588;BMP180;55560;52.174;20.996;2022-09-29T08:45:28;99298.00;;;10.90
68588;BMP180;55560;52.174;20.996;2022-09-29T08:48:22;99300.60;;;10.90
68588;BMP180;55560;52.174;20.996;2022-09-29T08:51:04;99313.60;;;10.90
68588;BMP180;55560;52.174;20.996;2022-09-29T08:53:42;99317.00;;;10.98
68588;BMP180;55560;52.174;20.996;2022-09-29T08:56:29;99319.60;;;11.00
68588;BMP180;55560;52.174;20.996;2022-09-29T08:58:59;99320.80;;;11.20
68588;BMP180;55560;52.174;20.996;2022-09-29T09:10:48;99332.60;;;11.10
68588;BMP180;55560;52.174;20.996;2022-09-29T09:20:25;99337.80;;;11.20
68588;BMP180;55560;52.174;20.996;2022-09-29T09:26:08;99338.00;;;11.20
68588;BMP180;55560;52.174;20.996;2022-09-29T09:28:47;99336.20;;;11.28
68588;BMP180;55560;52.174;20.996;2022-09-29T09:31:27;99341.80;;;11.30
68588;BMP180;55560;52.174;20.996;2022-09-29T09:34:00;99345.40;;;11.40
68588;BMP180;55560;52.174;20.996;2022-09-29T09:36:54;99345.00;;;11.52
68588;BMP180;55560;52.174;20.996;2022-09-29T09:43:15;99351.60;;;11.72
68588;BMP180;55560;52.174;20.996;2022-09-29T09:46:12;99358.80;;;11.80
68588;BMP180;55560;52.174;20.996;2022-09-29T09:48:53;99357.60;;;11.90
68588;BMP180;55560;52.174;20.996;2022-09-29T09:51:37;99361.60;;;11.90
68588;BMP180;55560;52.174;20.996;2022-09-29T09:54:25;99363.60;;;11.90
68588;BMP180;55560;52.174;20.996;2022-09-29T10:02:47;99379.60;;;12.00
68588;BMP180;55560;52.174;20.996;2022-09-29T10:05:44;99381.40;;;12.00
68588;BMP180;55560;52.174;20.996;2022-09-29T10:08:37;99378.20;;;12.12
68588;BMP180;55560;52.174;20.996;2022-09-29T10:14:15;99381.80;;;12.20
68588;BMP180;55560;52.174;20.996;2022-09-29T10:16:53;99381.80;;;12.20
68588;BMP180;55560;52.174;20.996;2022-09-29T10:19:56;99383.20;;;12.22
68588;BMP180;55560;52.174;20.996;2022-09-29T10:22:29;99384.40;;;12.20
68588;BMP180;55560;52.174;20.996;2022-09-29T10:25:19;99386.60;;;12.20
68588;BMP180;55560;52.174;20.996;2022-09-29T10:27:55;99395.20;;;12.20
68588;BMP180;55560;52.174;20.996;2022-09-29T10:30:34;99395.80;;;12.30
68588;BMP180;55560;52.174;20.996;2022-09-29T10:33:13;99403.00;;;12.28
68588;BMP180;55560;52.174;20.996;2022-09-29T10:35:43;99404.20;;;12.20
68588;BMP180;55560;52.174;20.996;2022-09-29T10:38:25;99403.80;;;12.32
68588;BMP180;55560;52.174;20.996;2022-09-29T10:41:01;99406.60;;;12.50
68588;BMP180;55560;52.174;20.996;2022-09-29T10:46:35;99411.00;;;12.60
68588;BMP180;55560;52.174;20.996;2022-09-29T10:54:33;99412.40;;;12.60
68588;BMP180;55560;52.174;20.996;2022-09-29T10:57:15;99413.80;;;12.60
68588;BMP180;55560;52.174;20.996;2022-09-29T10:59:50;99419.20;;;12.60
68588;BMP180;55560;52.174;20.996;2022-09-29T11:02:33;99424.20;;;12.60
68588;BMP180;55560;52.174;20.996;2022-09-29T11:05:24;99424.00;;;12.56
68588;BMP180;55560;52.174;20.996;2022-09-29T11:07:52;99432.20;;;12.60
68588;BMP180;55560;52.174;20.996;2022-09-29T11:10:34;99439.20;;;12.60
68588;BMP180;55560;52.174;20.996;2022-09-29T11:15:51;99433.60;;;12.98
68588;BMP180;55560;52.174;20.996;2022-09-29T11:18:33;99432.80;;;13.10
68588;BMP180;55560;52.174;20.996;2022-09-29T11:33:37;99433.20;;;13.40
68588;BMP180;55560;52.174;20.996;2022-09-29T11:46:02;99442.80;;;13.50
68588;BMP180;55560;52.174;20.996;2022-09-29T11:55:14;99438.00;;;13.80
68588;BMP180;55560;52.174;20.996;2022-09-29T12:16:08;99445.20;;;13.78
68588;BMP180;55560;52.174;20.996;2022-09-29T12:18:59;99450.00;;;13.70
68588;BMP180;55560;52.174;20.996;2022-09-29T12:21:41;99454.00;;;13.60
68588;BMP180;55560;52.174;20.996;2022-09-29T12:26:49;99462.80;;;13.70
68588;BMP180;55560;52.174;20.996;2022-09-29T12:29:35;99464.60;;;13.70
68588;BMP180;55560;52.174;20.996;2022-09-29T12:32:22;99458.60;;;13.86
68588;BMP180;55560;52.174;20.996;2022-09-29T12:35:16;99463.40;;;14.00
68588;BMP180;55560;52.174;20.996;2022-09-29T12:44:46;99470.80;;;14.04
68588;BMP180;55560;52.174;20.996;2022-09-29T12:47:18;99475.60;;;14.00
68588;BMP180;55560;52.174;20.996;2022-09-29T12:50:11;99475.40;;;13.94
68588;BMP180;55560;52.174;20.996;2022-09-29T12:53:11;99477.40;;;14.00
68588;BMP180;55560;52.174;20.996;2022-09-29T13:01:20;99476.80;;;14.00
68588;BMP180;55560;52.174;20.996;2022-09-29T13:10:10;99484.20;;;13.90
68588;BMP180;55560;52.174;20.996;2022-09-29T13:25:35;99488.40;;;13.80
68588;BMP180;55560;52.174;20.996;2022-09-29T13:28:30;99487.40;;;14.10
68588;BMP180;55560;52.174;20.996;2022-09-29T13:31:11;99485.80;;;14.30
68588;BMP180;55560;52.174;20.996;2022-09-29T13:33:50;99484.60;;;14.50
68588;BMP180;55560;52.174;20.996;2022-09-29T13:36:36;99482.40;;;14.68
68588;BMP180;55560;52.174;20.996;2022-09-29T13:39:25;99487.40;;;14.90
68588;BMP180;55560;52.174;20.996;2022-09-29T13:41:54;99488.40;;;15.10
68588;BMP180;55560;52.174;20.996;2022-09-29T13:44:27;99487.40;;;15.30
68588;BMP180;55560;52.174;20.996;2022-09-29T13:47:31;99490.60;;;15.44
68588;BMP180;55560;52.174;20.996;2022-09-29T13:56:09;99506.00;;;15.80
68588;BMP180;55560;52.174;20.996;2022-09-29T14:01:33;99509.60;;;15.90
68588;BMP180;55560;52.174;20.996;2022-09-29T14:07:36;99524.20;;;16.14
68588;BMP180;55560;52.174;20.996;2022-09-29T14:13:06;99528.20;;;16.00
68588;BMP180;55560;52.174;20.996;2022-09-29T14:16:44;99530.00;;;15.90
68588;BMP180;55560;52.174;20.996;2022-09-29T14:19:44;99530.80;;;15.70
68588;BMP180;55560;52.174;20.996;2022-09-29T14:28:06;99528.20;;;15.10
68588;BMP180;55560;52.174;20.996;2022-09-29T14:33:24;99525.80;;;15.00
68588;BMP180;55560;52.174;20.996;2022-09-29T14:36:13;99530.00;;;14.80
68588;BMP180;55560;52.174;20.996;2022-09-29T14:38:45;99528.00;;;14.60
68588;BMP180;55560;52.174;20.996;2022-09-29T14:41:44;99529.40;;;14.40
68588;BMP180;55560;52.174;20.996;2022-09-29T14:44:30;99529.80;;;14.30
68588;BMP180;55560;52.174;20.996;2022-09-29T14:47:45;99531.20;;;14.16
68588;BMP180;55560;52.174;20.996;2022-09-29T14:50:53;99530.60;;;14.00
68588;BMP180;55560;52.174;20.996;2022-09-29T14:54:10;99533.60;;;13.86
68588;BMP180;55560;52.174;20.996;2022-09-29T14:57:22;99535.80;;;13.70
68588;BMP180;55560;52.174;20.996;2022-09-29T15:00:21;99544.60;;;13.60
68588;BMP180;55560;52.174;20.996;2022-09-29T15:02:55;99550.00;;;13.50
68588;BMP180;55560;52.174;20.996;2022-09-29T15:05:43;99550.00;;;13.48
68588;BMP180;55560;52.174;20.996;2022-09-29T15:08:28;99553.40;;;13.40
68588;BMP180;55560;52.174;20.996;2022-09-29T15:11:02;99552.00;;;13.30
68588;BMP180;55560;52.174;20.996;2022-09-29T15:13:37;99550.40;;;13.30
68588;BMP180;55560;52.174;20.996;2022-09-29T15:16:16;99554.00;;;13.20
68588;BMP180;55560;52.174;20.996;2022-09-29T15:19:07;99555.40;;;13.20
68588;BMP180;55560;52.174;20.996;2022-09-29T15:21:50;99559.20;;;13.10
68588;BMP180;55560;52.174;20.996;2022-09-29T15:27:13;99562.60;;;13.00
68588;BMP180;55560;52.174;20.996;2022-09-29T15:29:54;99568.00;;;12.90
68588;BMP180;55560;52.174;20.996;2022-09-29T15:32:27;99564.60;;;12.88
68588;BMP180;55560;52.174;20.996;2022-09-29T15:35:05;99577.20;;;12.80
68588;BMP180;55560;52.174;20.996;2022-09-29T15:40:37;99582.60;;;12.60
68588;BMP180;55560;52.174;20.996;2022-09-29T15:43:20;99587.60;;;12.60
68588;BMP180;55560;52.174;20.996;2022-09-29T15:46:00;99588.00;;;12.60
68588;BMP180;55560;52.174;20.996;2022-09-29T15:48:33;99590.80;;;12.50
68588;BMP180;55560;52.174;20.996;2022-09-29T15:51:04;99590.20;;;12.50
68588;BMP180;55560;52.174;20.996;2022-09-29T15:53:36;99591.80;;;12.44
68588;BMP180;55560;52.174;20.996;2022-09-29T15:56:10;99600.00;;;12.40
68588;BMP180;55560;52.174;20.996;2022-09-29T15:58:47;99600.20;;;12.40
68588;BMP180;55560;52.174;20.996;2022-09-29T16:01:17;99602.60;;;12.30
68588;BMP180;55560;52.174;20.996;2022-09-29T16:03:55;99609.60;;;12.30
68588;BMP180;55560;52.174;20.996;2022-09-29T16:06:31;99605.20;;;12.20
68588;BMP180;55560;52.174;20.996;2022-09-29T16:09:06;99607.80;;;12.20
68588;BMP180;55560;52.174;20.996;2022-09-29T16:11:40;99605.80;;;12.14
68588;BMP180;55560;52.174;20.996;2022-09-29T16:14:17;99608.80;;;12.10
68588;BMP180;55560;52.174;20.996;2022-09-29T16:16:50;99614.60;;;12.00
68588;BMP180;55560;52.174;20.996;2022-09-29T16:19:28;99615.00;;;12.00
68588;BMP180;55560;52.174;20.996;2022-09-29T16:22:01;99620.60;;;11.90
68588;BMP180;55560;52.174;20.996;2022-09-29T16:24:54;99625.00;;;11.88
68588;BMP180;55560;52.174;20.996;2022-09-29T16:28:01;99627.80;;;11.80
68588;BMP180;55560;52.174;20.996;2022-09-29T16:30:35;99631.40;;;11.70
68588;BMP180;55560;52.174;20.996;2022-09-29T16:33:24;99637.20;;;11.60
68588;BMP180;55560;52.174;20.996;2022-09-29T16:38:40;99642.00;;;11.40
68588;BMP180;55560;52.174;20.996;2022-09-29T16:41:33;99643.40;;;11.30
68588;BMP180;55560;52.174;20.996;2022-09-29T16:47:11;99652.40;;;11.20
68588;BMP180;55560;52.174;20.996;2022-09-29T16:49:53;99656.60;;;11.10
68588;BMP180;55560;52.174;20.996;2022-09-29T16:52:33;99653.40;;;11.00
68588;BMP180;55560;52.174;20.996;2022-09-29T16:55:23;99658.20;;;10.90
68588;BMP180;55560;52.174;20.996;2022-09-29T16:58:07;99662.00;;;10.90
68588;BMP180;55560;52.174;20.996;2022-09-29T17:00:38;99660.80;;;10.80
68588;BMP180;55560;52.174;20.996;2022-09-29T17:03:08;99659.80;;;10.80
68588;BMP180;55560;52.174;20.996;2022-09-29T17:05:41;99665.40;;;10.80
68588;BMP180;55560;52.174;20.996;2022-09-29T17:08:26;99670.80;;;10.70
68588;BMP180;55560;52.174;20.996;2022-09-29T17:10:56;99673.20;;;10.70
68588;BMP180;55560;52.174;20.996;2022-09-29T17:13:32;99676.80;;;10.70
68588;BMP180;55560;52.174;20.996;2022-09-29T17:16:04;99675.60;;;10.70
68588;BMP180;55560;52.174;20.996;2022-09-29T17:18:38;99675.00;;;10.60
68588;BMP180;55560;52.174;20.996;2022-09-29T17:21:08;99676.20;;;10.50
68588;BMP180;55560;52.174;20.996;2022-09-29T17:23:38;99674.80;;;10.40
68588;BMP180;55560;52.174;20.996;2022-09-29T17:26:29;99678.40;;;10.40
68588;BMP180;55560;52.174;20.996;2022-09-29T17:29:20;99676.80;;;10.30
68588;BMP180;55560;52.174;20.996;2022-09-29T17:31:53;99675.40;;;10.30
68588;BMP180;55560;52.174;20.996;2022-09-29T17:34:27;99669.20;;;10.20
68588;BMP180;55560;52.174;20.996;2022-09-29T17:36:57;99666.60;;;10.20
68588;BMP180;55560;52.174;20.996;2022-09-29T17:39:27;99672.80;;;10.12
68588;BMP180;55560;52.174;20.996;2022-09-29T17:41:59;99671.00;;;10.10
68588;BMP180;55560;52.174;20.996;2022-09-29T17:44:29;99669.20;;;10.04
68588;BMP180;55560;52.174;20.996;2022-09-29T17:46:59;99671.40;;;10.00
68588;BMP180;55560;52.174;20.996;2022-09-29T17:49:47;99680.40;;;9.92
68588;BMP180;55560;52.174;20.996;2022-09-29T17:52:17;99679.00;;;9.90
68588;BMP180;55560;52.174;20.996;2022-09-29T17:54:52;99685.60;;;9.80
68588;BMP180;55560;52.174;20.996;2022-09-29T17:57:26;99697.60;;;9.80
68588;BMP180;55560;52.174;20.996;2022-09-29T17:59:56;99703.60;;;9.80
68588;BMP180;55560;52.174;20.996;2022-09-29T18:02:37;99696.80;;;9.70
68588;BMP180;55560;52.174;20.996;2022-09-29T18:05:09;99702.80;;;9.70
68588;BMP180;55560;52.174;20.996;2022-09-29T18:07:41;99705.00;;;9.66
68588;BMP180;55560;52.174;20.996;2022-09-29T18:10:19;99703.20;;;9.60
68588;BMP180;55560;52.174;20.996;2022-09-29T18:12:48;99703.80;;;9.54